Time;durP1;ratioP1;P1;durP2;ratioP2;P2;SDS_P1;SDS_P2;PMS_P1;PMS_P2;Temp;Humidity;BMP_temperature;BMP_pressure;BME280_temperature;BME280_humidity;BME280_pressure;Samples;Min_cycle;Max_cycle;Signal;HPM_P1;HPM_P2
2022/07/19 00:00:09;;;;;;;2.92;1.17;;;21.50;45.20;;;;;;5002891;28;20038;-44
2022/07/19 00:02:36;;;;;;;3.00;1.00;;;21.40;45.50;;;;;;5002642;28;20124;-44
2022/07/19 00:05:01;;;;;;;2.75;0.77;;;21.40;46.10;;;;;;5003464;28;20036;-44
2022/07/19 00:07:27;;;;;;;3.47;1.05;;;21.30;46.50;;;;;;5002322;28;20041;-44
2022/07/19 00:09:53;;;;;;;3.42;1.10;;;21.30;46.90;;;;;;5002613;28;20026;-44
2022/07/19 00:12:18;;;;;;;3.55;0.95;;;21.30;46.30;;;;;;5002803;28;20534;-44
2022/07/19 00:14:44;;;;;;;3.42;1.25;;;21.30;45.90;;;;;;5001852;28;20030;-44
2022/07/19 00:17:10;;;;;;;2.55;0.80;;;21.20;45.90;;;;;;5002265;28;20030;-44
2022/07/19 00:19:35;;;;;;;2.85;1.10;;;21.20;45.90;;;;;;5003144;28;20084;-45
2022/07/19 00:22:01;;;;;;;2.65;1.02;;;21.30;45.60;;;;;;5002754;28;20030;-44
2022/07/19 00:24:26;;;;;;;2.33;0.82;;;21.20;45.40;;;;;;5002698;28;20824;-44
2022/07/19 00:26:52;;;;;;;1.23;0.70;;;21.30;45.90;;;;;;5002128;28;20403;-44
2022/07/19 00:29:18;;;;;;;2.28;0.98;;;21.30;46.30;;;;;;5003007;28;20041;-44
2022/07/19 00:31:43;;;;;;;2.90;0.90;;;21.30;46.70;;;;;;5001395;28;20049;-45
2022/07/19 00:34:09;;;;;;;2.60;1.00;;;21.30;46.80;;;;;;5002753;28;20099;-44
2022/07/19 00:36:35;;;;;;;2.40;1.10;;;21.30;47.00;;;;;;5001851;28;20702;-44
2022/07/19 00:39:00;;;;;;;3.17;0.95;;;21.30;47.20;;;;;;5002445;28;20057;-44
2022/07/19 00:41:26;;;;;;;2.25;0.98;;;21.30;47.30;;;;;;5001325;28;20025;-44
2022/07/19 00:43:52;;;;;;;3.45;1.10;;;21.30;47.70;;;;;;5001940;28;20076;-44
2022/07/19 00:46:21;;;;;;;3.13;1.08;;;21.40;48.00;;;;;;5002359;28;20091;-46
2022/07/19 00:48:48;;;;;;;2.92;1.13;;;21.40;48.30;;;;;;5002712;28;20034;-44
2022/07/19 00:51:15;;;;;;;2.78;1.17;;;21.30;48.40;;;;;;5006293;28;20113;-45
2022/07/19 00:53:41;;;;;;;4.43;1.20;;;21.40;48.80;;;;;;5006662;28;20101;-44
2022/07/19 00:56:09;;;;;;;2.30;0.93;;;21.40;49.10;;;;;;5005898;28;20022;-45
2022/07/19 00:58:36;;;;;;;3.00;1.20;;;21.40;49.40;;;;;;5005734;28;20076;-44
2022/07/19 01:01:04;;;;;;;4.90;1.00;;;21.40;49.50;;;;;;5006329;28;20025;-45
2022/07/19 01:03:30;;;;;;;2.78;1.25;;;21.40;49.60;;;;;;5006924;28;20034;-44
2022/07/19 01:05:56;;;;;;;3.10;1.40;;;21.40;49.80;;;;;;5004251;28;20112;-44
2022/07/19 01:08:22;;;;;;;3.13;1.05;;;21.40;49.70;;;;;;5005959;28;20030;-44
2022/07/19 01:10:48;;;;;;;2.85;1.20;;;21.40;49.90;;;;;;5005632;28;20033;-47
2022/07/19 01:13:14;;;;;;;2.72;1.10;;;21.40;49.90;;;;;;5005513;28;20034;-44
2022/07/19 01:15:41;;;;;;;2.03;1.10;;;21.40;49.80;;;;;;5005925;28;20421;-44
2022/07/19 01:18:08;;;;;;;2.88;1.50;;;21.40;49.80;;;;;;5005596;28;20100;-44
2022/07/19 01:20:34;;;;;;;2.08;0.85;;;21.40;49.90;;;;;;5005150;28;20034;-44
2022/07/19 01:23:00;;;;;;;3.42;0.82;;;21.40;49.90;;;;;;5005033;28;20017;-44
2022/07/19 01:25:29;;;;;;;2.72;1.00;;;21.40;49.80;;;;;;5005142;28;20054;-44
2022/07/19 01:27:54;;;;;;;5.60;1.20;;;21.40;49.90;;;;;;5008633;28;20038;-48
2022/07/19 01:30:23;;;;;;;2.42;1.05;;;21.40;49.90;;;;;;5004585;28;20030;-45
2022/07/19 01:32:49;;;;;;;6.72;1.65;;;21.40;50.00;;;;;;5005244;28;20026;-44
2022/07/19 01:35:15;;;;;;;3.45;1.00;;;21.40;50.00;;;;;;5004277;28;20307;-44
2022/07/19 01:37:41;;;;;;;2.45;1.00;;;21.40;50.00;;;;;;5005524;28;20026;-46
2022/07/19 01:40:09;;;;;;;3.42;1.00;;;21.40;50.00;;;;;;5005556;28;20033;-44
2022/07/19 01:42:35;;;;;;;2.58;1.48;;;21.40;50.00;;;;;;5004869;28;20665;-44
2022/07/19 01:45:00;;;;;;;2.83;1.08;;;21.40;50.00;;;;;;5005321;28;20073;-44
2022/07/19 01:47:26;;;;;;;3.78;1.23;;;21.40;50.00;;;;;;5004898;28;20037;-44
2022/07/19 01:49:52;;;;;;;2.60;1.00;;;21.40;50.00;;;;;;5005326;28;20479;-44
2022/07/19 01:52:17;;;;;;;4.65;1.38;;;21.40;50.00;;;;;;5004468;28;20022;-44
2022/07/19 01:54:43;;;;;;;2.60;1.02;;;21.40;50.10;;;;;;5005078;28;20036;-44
2022/07/19 01:57:09;;;;;;;2.95;1.15;;;21.40;50.20;;;;;;5005050;28;20649;-44
2022/07/19 01:59:38;;;;;;;4.50;1.10;;;21.40;50.40;;;;;;5004473;28;20022;-44
2022/07/19 02:02:04;;;;;;;4.00;1.70;;;21.40;50.50;;;;;;5004711;28;20091;-45
2022/07/19 02:04:30;;;;;;;3.75;1.40;;;21.30;50.50;;;;;;5005035;28;20037;-44
2022/07/19 02:06:56;;;;;;;2.72;1.20;;;21.30;50.70;;;;;;5004793;28;20030;-44
2022/07/19 02:09:22;;;;;;;3.50;1.40;;;21.30;50.80;;;;;;5004656;28;20026;-44
2022/07/19 02:11:48;;;;;;;4.30;1.40;;;21.30;51.00;;;;;;5004167;28;20029;-44
2022/07/19 02:14:14;;;;;;;3.63;1.50;;;21.30;51.20;;;;;;5004509;28;20513;-44
2022/07/19 02:16:39;;;;;;;3.30;1.13;;;21.30;51.20;;;;;;5004220;28;20038;-44
2022/07/19 02:19:06;;;;;;;3.15;1.65;;;21.30;51.10;;;;;;5004586;28;20026;-44
2022/07/19 02:21:33;;;;;;;3.45;1.23;;;21.30;51.10;;;;;;5004132;28;20693;-45
2022/07/19 02:23:59;;;;;;;3.30;1.00;;;21.30;51.20;;;;;;5005147;28;20030;-44
2022/07/19 02:26:25;;;;;;;2.38;1.02;;;21.30;51.10;;;;;;5004372;28;20026;-44
2022/07/19 02:28:51;;;;;;;2.63;1.15;;;21.30;51.20;;;;;;5003965;28;20038;-44
2022/07/19 02:31:17;;;;;;;3.00;1.30;;;21.30;51.30;;;;;;5004546;28;20022;-44
2022/07/19 02:33:43;;;;;;;3.08;1.10;;;21.30;51.30;;;;;;5003644;28;20041;-44
2022/07/19 02:36:09;;;;;;;4.25;1.27;;;21.30;51.30;;;;;;5003758;28;20026;-44
2022/07/19 02:38:35;;;;;;;3.97;1.20;;;21.20;51.20;;;;;;5004038;28;20030;-45
2022/07/19 02:41:00;;;;;;;4.45;1.52;;;21.20;51.20;;;;;;5004575;28;20033;-44
2022/07/19 02:43:26;;;;;;;3.97;1.45;;;21.20;51.30;;;;;;5004374;28;20041;-44
2022/07/19 02:45:52;;;;;;;3.10;1.33;;;21.20;51.40;;;;;;5003631;28;20025;-44
2022/07/19 02:48:18;;;;;;;3.25;1.30;;;21.20;51.30;;;;;;5004387;28;20045;-44
2022/07/19 02:50:43;;;;;;;2.92;1.25;;;21.20;51.40;;;;;;5003853;28;20530;-44
2022/07/19 02:53:09;;;;;;;2.85;1.30;;;21.20;51.40;;;;;;5003572;28;20084;-44
2022/07/19 02:55:36;;;;;;;2.95;1.20;;;21.20;51.40;;;;;;5003875;28;20063;-44
2022/07/19 02:58:02;;;;;;;4.20;1.60;;;21.20;51.50;;;;;;5008658;28;20026;-45
2022/07/19 03:00:27;;;;;;;4.28;1.50;;;21.10;51.50;;;;;;5003678;28;20066;-44
2022/07/19 03:02:53;;;;;;;4.10;1.40;;;21.20;51.50;;;;;;5003151;28;20061;-44
2022/07/19 03:05:19;;;;;;;2.90;1.40;;;21.20;51.50;;;;;;5002886;28;20113;-44
2022/07/19 03:07:45;;;;;;;2.33;1.08;;;21.20;51.50;;;;;;5003261;28;20057;-44
2022/07/19 03:10:11;;;;;;;4.03;1.10;;;21.10;51.50;;;;;;5003153;28;20693;-45
2022/07/19 03:12:36;;;;;;;2.55;1.00;;;21.10;51.50;;;;;;5002792;28;20040;-44
2022/07/19 03:15:04;;;;;;;3.03;1.35;;;21.10;51.60;;;;;;5002537;28;20532;-44
2022/07/19 03:17:30;;;;;;;4.75;1.27;;;21.10;51.60;;;;;;5004087;28;20037;-44
2022/07/19 03:19:55;;;;;;;3.00;1.17;;;21.10;51.50;;;;;;5003654;28;20394;-44
2022/07/19 03:22:21;;;;;;;2.33;1.10;;;21.10;51.50;;;;;;5003418;28;20026;-44
2022/07/19 03:24:47;;;;;;;1.50;0.90;;;21.10;51.60;;;;;;5003229;28;20632;-44
2022/07/19 03:27:12;;;;;;;2.90;1.10;;;21.00;51.60;;;;;;5002722;28;20040;-44
2022/07/19 03:29:38;;;;;;;3.33;1.25;;;21.00;51.60;;;;;;5003309;28;20030;-44
2022/07/19 03:32:04;;;;;;;2.78;1.00;;;21.00;51.50;;;;;;5002809;28;20026;-44
2022/07/19 03:34:30;;;;;;;3.13;1.10;;;21.00;51.50;;;;;;5003756;28;20713;-44
2022/07/19 03:36:56;;;;;;;4.05;1.33;;;21.00;51.50;;;;;;5002602;28;20041;-44
2022/07/19 03:39:21;;;;;;;3.05;1.40;;;21.00;51.50;;;;;;5003462;28;20034;-44
2022/07/19 03:41:47;;;;;;;3.90;1.58;;;21.00;51.40;;;;;;5002816;28;20708;-44
2022/07/19 03:44:13;;;;;;;4.18;1.98;;;21.00;51.40;;;;;;5002970;28;20034;-44
2022/07/19 03:46:39;;;;;;;4.15;1.52;;;21.00;51.30;;;;;;5002853;28;20033;-44
2022/07/19 03:49:05;;;;;;;3.83;2.15;;;20.90;50.90;;;;;;5003197;28;20034;-44
2022/07/19 03:51:30;;;;;;;4.03;1.95;;;20.90;50.80;;;;;;5003482;28;20438;-44
2022/07/19 03:53:56;;;;;;;5.05;2.17;;;20.90;50.90;;;;;;5002893;28;20069;-44
2022/07/19 03:56:22;;;;;;;4.38;2.13;;;20.90;51.00;;;;;;5002575;28;20029;-44
2022/07/19 03:58:49;;;;;;;5.70;2.17;;;20.90;51.00;;;;;;5003246;28;20547;-44
2022/07/19 04:01:15;;;;;;;3.83;1.85;;;20.90;51.20;;;;;;5002809;28;20033;-44
2022/07/19 04:03:41;;;;;;;3.67;1.70;;;20.90;51.40;;;;;;5003389;28;20037;-44
2022/07/19 04:06:09;;;;;;;3.17;1.52;;;20.90;51.50;;;;;;5002076;28;20033;-44
2022/07/19 04:08:34;;;;;;;6.13;1.80;;;20.90;51.70;;;;;;5002582;28;20033;-44
2022/07/19 04:11:00;;;;;;;5.00;1.65;;;20.90;51.90;;;;;;5002170;28;20030;-44
2022/07/19 04:13:26;;;;;;;4.38;1.40;;;20.90;52.70;;;;;;5002955;28;20042;-44
2022/07/19 04:15:52;;;;;;;4.30;1.65;;;20.90;52.10;;;;;;5002673;28;20105;-44
2022/07/19 04:18:18;;;;;;;4.50;1.45;;;20.90;52.30;;;;;;5002910;28;20110;-44
2022/07/19 04:20:43;;;;;;;3.15;1.20;;;20.90;52.40;;;;;;5002951;28;20461;-44
2022/07/19 04:23:09;;;;;;;3.03;1.20;;;20.90;52.60;;;;;;5002623;28;20096;-44
2022/07/19 04:25:35;;;;;;;3.42;1.30;;;20.90;52.60;;;;;;5005200;28;20651;-44
2022/07/19 04:28:01;;;;;;;3.35;1.50;;;20.90;52.80;;;;;;5012853;28;20029;-44
2022/07/19 04:30:28;;;;;;;3.25;1.45;;;20.90;52.80;;;;;;5006598;28;20454;-44
2022/07/19 04:32:54;;;;;;;3.75;1.33;;;20.90;52.80;;;;;;5006634;28;20026;-44
2022/07/19 04:35:20;;;;;;;3.20;1.58;;;20.90;52.90;;;;;;5005818;28;20540;-44
2022/07/19 04:37:45;;;;;;;3.70;1.70;;;20.90;53.00;;;;;;5006281;28;20088;-44
2022/07/19 04:40:12;;;;;;;3.90;1.52;;;20.90;53.10;;;;;;5006610;28;20438;-44
2022/07/19 04:42:38;;;;;;;3.38;1.10;;;20.80;53.40;;;;;;5006575;28;20030;-44
2022/07/19 04:45:04;;;;;;;2.97;1.20;;;20.80;53.10;;;;;;5005758;28;20033;-44
2022/07/19 04:47:30;;;;;;;4.25;1.67;;;20.80;53.00;;;;;;5006301;28;20556;-44
2022/07/19 04:49:56;;;;;;;3.67;1.38;;;20.70;53.10;;;;;;5006243;28;20038;-44
2022/07/19 04:52:22;;;;;;;3.08;1.42;;;20.80;53.30;;;;;;5005619;28;20037;-44
2022/07/19 04:54:47;;;;;;;4.57;1.50;;;20.70;53.50;;;;;;5038181;28;20065;-45
2022/07/19 04:57:14;;;;;;;3.30;1.30;;;20.70;53.60;;;;;;5009715;28;20767;-44
2022/07/19 04:59:40;;;;;;;3.47;1.20;;;20.70;53.70;;;;;;5009040;28;20519;-44
2022/07/19 05:02:06;;;;;;;3.88;1.40;;;20.70;54.50;;;;;;5006198;28;20025;-44
2022/07/19 05:04:32;;;;;;;2.90;1.15;;;20.70;53.90;;;;;;5005510;28;20034;-44
2022/07/19 05:06:58;;;;;;;3.30;1.33;;;20.70;54.00;;;;;;5003408;28;20030;-44
2022/07/19 05:09:28;;;;;;;3.10;1.38;;;20.70;54.00;;;;;;5004327;28;20022;-43
2022/07/19 05:11:54;;;;;;;2.30;1.17;;;20.70;54.10;;;;;;5004600;28;20033;-44
2022/07/19 05:14:20;;;;;;;3.13;1.30;;;20.70;54.50;;;;;;5001845;28;20756;-44
2022/07/19 05:16:46;;;;;;;2.97;1.10;;;20.70;54.70;;;;;;5003200;28;20022;-44
2022/07/19 05:19:12;;;;;;;3.50;1.55;;;20.70;55.20;;;;;;5001242;28;20054;-44
2022/07/19 05:21:37;;;;;;;3.17;1.20;;;20.70;55.50;;;;;;5004003;28;20036;-44
2022/07/19 05:24:03;;;;;;;4.35;1.48;;;20.60;55.60;;;;;;5004468;28;20093;-44
2022/07/19 05:26:30;;;;;;;3.60;1.17;;;20.60;56.80;;;;;;5003470;28;20018;-44
2022/07/19 05:28:56;;;;;;;3.25;1.40;;;20.60;56.00;;;;;;5003388;28;20049;-44
2022/07/19 05:31:21;;;;;;;2.53;1.20;;;20.70;55.50;;;;;;5003787;28;20018;-44
2022/07/19 05:33:47;;;;;;;3.40;1.33;;;20.80;55.20;;;;;;5003699;28;20033;-44
2022/07/19 05:36:13;;;;;;;4.00;1.10;;;20.90;54.90;;;;;;5002468;28;20022;-44
2022/07/19 05:38:39;;;;;;;2.33;1.20;;;21.00;54.70;;;;;;5002121;28;20126;-44
2022/07/19 05:41:10;;;;;;;3.35;1.42;;;21.10;54.30;;;;;;5004294;28;20025;-45
2022/07/19 05:43:36;;;;;;;3.53;1.25;;;21.20;54.20;;;;;;4998327;28;20061;-44
2022/07/19 05:46:03;;;;;;;4.15;1.50;;;21.20;53.90;;;;;;4995041;28;20713;-44
2022/07/19 05:48:29;;;;;;;3.58;1.30;;;21.30;54.00;;;;;;4992720;28;20042;-44
2022/07/19 05:50:55;;;;;;;3.75;1.42;;;21.40;53.80;;;;;;5003034;28;20758;-44
2022/07/19 05:53:21;;;;;;;2.75;1.13;;;21.50;53.80;;;;;;4994664;28;20026;-44
2022/07/19 05:55:47;;;;;;;3.03;1.20;;;21.50;53.70;;;;;;4995418;28;20032;-44
2022/07/19 05:58:12;;;;;;;3.40;1.20;;;21.60;53.50;;;;;;5019099;28;20057;-44
2022/07/19 06:00:38;;;;;;;2.25;0.90;;;21.70;53.40;;;;;;5002658;28;20018;-44
2022/07/19 06:03:24;;;;;;;2.38;1.10;;;21.70;53.30;;;;;;5003137;28;20026;-44
2022/07/19 06:05:49;;;;;;;3.35;1.13;;;21.80;53.10;;;;;;5003606;28;20743;-44
2022/07/19 06:08:15;;;;;;;2.97;1.40;;;21.80;52.90;;;;;;5003130;28;20041;-44
2022/07/19 06:10:40;;;;;;;2.55;0.90;;;21.90;52.80;;;;;;5003581;28;20022;-44
2022/07/19 06:13:06;;;;;;;2.42;0.93;;;21.90;52.80;;;;;;5002083;28;20026;-44
2022/07/19 06:15:32;;;;;;;3.83;1.17;;;22.00;52.70;;;;;;4993739;28;20066;-44
2022/07/19 06:17:57;;;;;;;2.92;1.13;;;22.00;52.60;;;;;;4996910;28;20083;-43
2022/07/19 06:20:23;;;;;;;2.90;1.10;;;22.00;52.40;;;;;;5001728;28;20615;-44
2022/07/19 06:22:48;;;;;;;2.58;1.10;;;22.10;52.30;;;;;;5003686;28;20022;-44
2022/07/19 06:25:14;;;;;;;2.38;1.00;;;22.20;52.10;;;;;;5002713;28;20030;-45
2022/07/19 06:27:40;;;;;;;1.73;0.80;;;22.20;52.10;;;;;;5004192;28;20116;-45
2022/07/19 06:30:06;;;;;;;3.00;1.08;;;22.20;52.10;;;;;;5000308;28;20877;-45
2022/07/19 06:32:31;;;;;;;2.92;1.00;;;22.30;52.20;;;;;;5002348;28;20025;-46
2022/07/19 06:34:57;;;;;;;3.95;1.20;;;22.30;52.00;;;;;;5002329;28;20211;-47
2022/07/19 06:37:23;;;;;;;3.33;1.45;;;22.40;52.00;;;;;;5003315;28;20053;-46
2022/07/19 06:39:48;;;;;;;4.28;1.20;;;22.40;52.00;;;;;;5004126;28;20095;-46
2022/07/19 06:42:14;;;;;;;3.25;1.13;;;22.40;52.00;;;;;;5003794;28;20613;-48
2022/07/19 06:44:40;;;;;;;5.80;1.27;;;22.50;51.60;;;;;;5003703;28;20038;-46
2022/07/19 06:47:06;;;;;;;5.05;1.35;;;22.50;52.20;;;;;;5003282;28;20096;-46
2022/07/19 06:49:32;;;;;;;5.03;1.40;;;22.50;51.20;;;;;;5004141;28;20518;-47
2022/07/19 06:51:57;;;;;;;4.20;1.33;;;22.50;51.10;;;;;;5004001;28;20072;-46
2022/07/19 06:54:23;;;;;;;3.58;1.48;;;22.60;51.00;;;;;;5003838;28;20022;-46
2022/07/19 06:56:49;;;;;;;3.55;1.27;;;22.60;50.80;;;;;;5003425;28;20030;-46
2022/07/19 06:59:15;;;;;;;5.00;1.50;;;22.70;50.90;;;;;;5004028;28;20038;-46
2022/07/19 07:01:40;;;;;;;2.80;1.08;;;22.70;50.80;;;;;;5003382;28;20113;-46
2022/07/19 07:04:06;;;;;;;4.55;1.50;;;22.70;50.70;;;;;;5003944;28;20263;-46
2022/07/19 07:06:31;;;;;;;3.15;1.20;;;22.70;50.60;;;;;;5002574;28;20567;-46
2022/07/19 07:08:57;;;;;;;2.88;1.00;;;22.80;50.50;;;;;;5003174;28;20038;-46
2022/07/19 07:11:22;;;;;;;3.33;1.20;;;22.80;50.50;;;;;;5003265;28;20030;-46
2022/07/19 07:13:48;;;;;;;2.67;1.10;;;22.80;50.40;;;;;;5002954;28;20044;-46
2022/07/19 07:16:14;;;;;;;3.30;1.17;;;22.80;50.30;;;;;;5003007;28;20076;-46
2022/07/19 07:18:39;;;;;;;2.92;1.20;;;22.90;50.30;;;;;;5003217;28;20087;-47
2022/07/19 07:21:05;;;;;;;4.13;1.50;;;22.90;50.20;;;;;;5001702;28;20036;-47
2022/07/19 07:23:31;;;;;;;3.63;1.10;;;22.90;50.20;;;;;;5003186;28;20474;-46
2022/07/19 07:25:57;;;;;;;4.70;1.15;;;22.90;50.10;;;;;;5003168;28;20036;-46
2022/07/19 07:28:22;;;;;;;4.55;1.52;;;23.00;50.00;;;;;;5012325;28;20646;-46
2022/07/19 07:30:48;;;;;;;4.07;1.15;;;22.90;50.00;;;;;;5002491;28;20022;-46
2022/07/19 07:33:13;;;;;;;3.03;1.08;;;23.00;50.00;;;;;;5003081;28;20474;-46
2022/07/19 07:35:39;;;;;;;2.75;1.35;;;23.00;49.90;;;;;;5002791;28;20824;-45
2022/07/19 07:38:05;;;;;;;3.45;1.17;;;23.00;49.80;;;;;;5003390;28;20705;-46
2022/07/19 07:40:30;;;;;;;3.60;1.00;;;23.00;49.80;;;;;;5003151;28;20032;-46
2022/07/19 07:42:56;;;;;;;3.85;1.30;;;23.10;49.90;;;;;;5003430;28;20474;-46
2022/07/19 07:45:22;;;;;;;4.78;1.27;;;23.10;49.80;;;;;;5002631;28;20537;-46
2022/07/19 07:47:48;;;;;;;3.08;1.00;;;23.10;49.70;;;;;;5003376;28;20034;-47
2022/07/19 07:50:13;;;;;;;3.80;1.40;;;23.10;49.60;;;;;;5002661;28;20112;-49
2022/07/19 07:52:39;;;;;;;3.53;1.25;;;23.10;49.60;;;;;;5003376;28;20674;-46
2022/07/19 07:55:06;;;;;;;2.63;1.08;;;23.10;49.60;;;;;;5002632;28;20034;-46
2022/07/19 07:57:32;;;;;;;2.05;0.88;;;23.20;49.50;;;;;;5015285;28;20037;-46
2022/07/19 07:59:57;;;;;;;2.65;0.95;;;23.20;49.50;;;;;;5004616;28;20018;-47
2022/07/19 08:02:23;;;;;;;2.70;1.10;;;23.20;49.50;;;;;;5006919;28;20033;-47
2022/07/19 08:04:49;;;;;;;2.95;1.30;;;23.20;49.40;;;;;;5006801;28;20030;-46
2022/07/19 08:07:14;;;;;;;1.98;0.82;;;23.20;49.40;;;;;;5007063;28;20014;-46
2022/07/19 08:09:40;;;;;;;3.10;1.10;;;23.20;49.30;;;;;;5007194;28;20025;-46
2022/07/19 08:12:06;;;;;;;2.60;0.90;;;23.20;49.30;;;;;;5006737;28;20025;-46
2022/07/19 08:14:32;;;;;;;2.60;1.20;;;23.20;49.30;;;;;;5006131;28;20560;-46
2022/07/19 08:16:58;;;;;;;2.67;1.23;;;23.30;49.30;;;;;;5005590;28;20025;-47
2022/07/19 08:19:24;;;;;;;2.88;1.10;;;23.30;49.30;;;;;;5002781;28;20065;-47
2022/07/19 08:21:50;;;;;;;1.90;0.80;;;23.30;49.30;;;;;;5005240;28;20061;-47
2022/07/19 08:24:16;;;;;;;2.50;1.10;;;23.30;49.30;;;;;;5004916;28;20555;-46
2022/07/19 08:26:41;;;;;;;4.43;1.20;;;23.30;49.30;;;;;;5004165;28;20085;-46
2022/07/19 08:29:07;;;;;;;3.00;1.02;;;23.30;49.30;;;;;;5001892;28;20053;-46
2022/07/19 08:31:33;;;;;;;4.72;1.15;;;23.40;49.30;;;;;;5006052;28;20066;-47
2022/07/19 08:33:59;;;;;;;3.95;1.35;;;23.40;49.40;;;;;;5005641;28;20099;-46
2022/07/19 08:36:24;;;;;;;3.40;1.00;;;23.40;49.30;;;;;;5006177;28;20060;-46
2022/07/19 08:38:50;;;;;;;3.15;1.30;;;23.40;49.30;;;;;;5005857;28;20041;-46
2022/07/19 08:41:16;;;;;;;7.72;1.52;;;23.40;49.30;;;;;;5006233;28;20028;-46
2022/07/19 08:43:42;;;;;;;2.75;1.15;;;23.40;49.30;;;;;;5005344;28;20024;-46
2022/07/19 08:46:08;;;;;;;3.72;1.17;;;23.40;49.30;;;;;;5005574;28;20110;-47
2022/07/19 08:48:35;;;;;;;2.33;1.00;;;23.40;49.30;;;;;;5037346;28;20493;-46
2022/07/19 08:51:04;;;;;;;2.80;1.17;;;23.40;49.20;;;;;;5005664;28;20073;-46
2022/07/19 08:53:31;;;;;;;4.40;1.52;;;23.50;49.40;;;;;;5006198;28;20088;-46
2022/07/19 08:55:58;;;;;;;2.72;1.00;;;23.40;49.20;;;;;;5005424;28;20026;-46
2022/07/19 08:58:24;;;;;;;3.83;0.82;;;23.50;49.20;;;;;;5006010;28;20033;-47
2022/07/19 09:00:50;;;;;;;3.97;1.05;;;23.50;49.20;;;;;;5004907;28;20042;-46
2022/07/19 09:03:15;;;;;;;2.30;0.88;;;23.50;49.20;;;;;;5004851;28;20117;-46
2022/07/19 09:05:41;;;;;;;2.03;0.75;;;23.50;49.20;;;;;;4996921;28;20098;-47
2022/07/19 09:08:13;;;;;;;2.50;0.90;;;23.50;49.50;;;;;;5004162;28;20261;-47
2022/07/19 09:11:13;;;;;;;3.80;1.10;;;23.50;49.40;;;;;;5004921;28;20688;-47
2022/07/19 09:13:30;;;;;;;3.00;1.20;;;23.50;49.40;;;;;;5004550;28;20026;-46
2022/07/19 09:15:56;;;;;;;2.80;1.00;;;23.50;49.30;;;;;;5005423;28;20029;-46
2022/07/19 09:18:27;;;;;;;2.72;0.80;;;23.50;49.20;;;;;;5005127;28;20029;-46
2022/07/19 09:20:55;;;;;;;3.40;1.23;;;23.60;49.20;;;;;;5005170;28;20026;-46
2022/07/19 09:23:22;;;;;;;2.65;0.82;;;23.60;49.20;;;;;;5004797;28;20033;-47
2022/07/19 09:25:53;;;;;;;2.42;1.10;;;23.60;49.20;;;;;;5004982;28;20026;-46
2022/07/19 09:28:20;;;;;;;2.70;1.00;;;23.60;49.20;;;;;;5016648;28;20457;-46
2022/07/19 09:30:51;;;;;;;3.83;1.10;;;23.60;49.20;;;;;;5005215;28;20057;-46
2022/07/19 09:33:18;;;;;;;2.33;1.00;;;23.60;49.20;;;;;;5005523;28;20026;-47
2022/07/19 09:35:47;;;;;;;3.50;1.17;;;23.60;49.00;;;;;;5004993;28;20034;-46
2022/07/19 09:38:32;;;;;;;2.92;1.15;;;23.60;49.10;;;;;;5004369;28;20036;-49
2022/07/19 09:41:14;;;;;;;1.77;0.75;;;23.60;49.10;;;;;;5004449;28;20049;-46
2022/07/19 09:43:55;;;;;;;2.17;0.90;;;23.60;49.10;;;;;;5004892;28;20129;-46
2022/07/19 09:46:35;;;;;;;1.63;0.80;;;23.60;48.90;;;;;;5003808;28;20025;-47
2022/07/19 09:49:09;;;;;;;2.25;0.90;;;23.60;49.00;;;;;;5004597;28;20037;-47
2022/07/19 09:51:40;;;;;;;2.35;0.95;;;23.70;48.90;;;;;;5004605;28;20124;-46
2022/07/19 09:54:07;;;;;;;3.63;1.00;;;23.70;48.90;;;;;;5005202;28;20030;-46
2022/07/19 09:56:33;;;;;;;1.63;0.68;;;23.70;48.90;;;;;;5004188;28;20390;-48
2022/07/19 09:58:59;;;;;;;2.38;0.82;;;23.70;48.90;;;;;;5004407;28;20041;-47
2022/07/19 10:01:27;;;;;;;2.08;1.00;;;23.70;48.80;;;;;;5004309;28;20042;-46
2022/07/19 10:03:56;;;;;;;1.77;0.68;;;23.70;48.90;;;;;;4993351;28;20026;-46
2022/07/19 10:06:24;;;;;;;2.75;1.00;;;23.70;48.80;;;;;;4994784;28;20100;-46
2022/07/19 10:08:50;;;;;;;2.13;0.90;;;23.70;48.90;;;;;;4992664;28;20113;-46
2022/07/19 10:11:17;;;;;;;2.25;0.95;;;23.70;48.80;;;;;;4996286;28;20030;-46
2022/07/19 10:13:43;;;;;;;2.17;1.10;;;23.70;48.80;;;;;;4994772;28;20026;-47
2022/07/19 10:16:15;;;;;;;1.83;0.80;;;23.80;48.70;;;;;;5016408;28;20738;-47
2022/07/19 10:19:10;;;;;;;1.95;0.80;;;23.70;48.70;;;;;;4984922;28;20121;-46
2022/07/19 10:21:36;;;;;;;1.77;0.70;;;23.80;48.70;;;;;;4990773;28;20021;-46
2022/07/19 10:24:02;;;;;;;2.15;0.75;;;23.80;48.70;;;;;;4986953;28;20053;-46
2022/07/19 10:26:39;;;;;;;1.83;0.85;;;23.80;48.70;;;;;;4988345;28;20498;-46
2022/07/19 10:29:14;;;;;;;1.75;0.65;;;23.80;48.60;;;;;;5003783;28;20033;-47
2022/07/19 10:31:40;;;;;;;2.13;1.02;;;23.80;48.60;;;;;;5000410;28;20022;-46
2022/07/19 10:34:11;;;;;;;2.75;1.00;;;23.80;48.70;;;;;;5001308;28;20053;-47
2022/07/19 10:36:44;;;;;;;3.78;1.00;;;23.80;48.60;;;;;;4998181;28;20025;-46
2022/07/19 10:39:21;;;;;;;3.05;0.90;;;23.80;48.60;;;;;;5001244;28;20088;-47
2022/07/19 10:42:19;;;;;;;1.58;0.65;;;23.80;48.60;;;;;;5003888;28;20084;-47
2022/07/19 10:44:59;;;;;;;3.03;1.02;;;23.80;48.50;;;;;;5003416;28;20080;-46
2022/07/19 10:47:35;;;;;;;2.38;1.00;;;23.90;48.60;;;;;;4994174;28;20030;-47
2022/07/19 10:50:02;;;;;;;2.22;0.90;;;23.90;48.60;;;;;;4990824;28;20032;-46
2022/07/19 10:52:27;;;;;;;1.80;0.70;;;23.90;49.20;;;;;;4998910;28;20041;-46
2022/07/19 10:55:23;;;;;;;2.15;0.90;;;23.90;48.50;;;;;;5003787;28;20018;-47
2022/07/19 10:58:06;;;;;;;2.50;0.90;;;23.90;48.50;;;;;;5006589;28;20029;-47
2022/07/19 11:00:48;;;;;;;1.80;0.60;;;23.90;48.40;;;;;;5003873;28;20046;-48
2022/07/19 11:03:20;;;;;;;1.92;0.80;;;23.90;48.50;;;;;;5003813;28;20053;-47
2022/07/19 11:05:47;;;;;;;2.70;0.50;;;23.90;48.30;;;;;;5003531;28;20515;-47
2022/07/19 11:08:13;;;;;;;2.15;0.80;;;23.90;48.40;;;;;;5004052;28;20081;-47
2022/07/19 11:10:39;;;;;;;2.10;0.80;;;23.90;48.30;;;;;;5003694;28;20062;-47
2022/07/19 11:13:05;;;;;;;2.58;0.80;;;24.00;48.30;;;;;;5003984;28;20061;-47
2022/07/19 11:15:31;;;;;;;1.83;0.68;;;23.90;48.30;;;;;;5001816;28;20029;-46
2022/07/19 11:17:59;;;;;;;2.13;0.80;;;23.90;48.20;;;;;;5003721;28;20026;-46
2022/07/19 11:20:27;;;;;;;2.78;0.95;;;24.00;48.20;;;;;;5002490;28;20026;-47
2022/07/19 11:22:57;;;;;;;1.95;0.73;;;24.00;48.30;;;;;;5003419;28;20014;-46
2022/07/19 11:25:28;;;;;;;3.15;0.75;;;24.00;48.20;;;;;;5003231;28;20670;-46
2022/07/19 11:27:54;;;;;;;1.52;0.70;;;24.00;48.10;;;;;;5003641;28;20688;-46
2022/07/19 11:30:22;;;;;;;1.52;0.60;;;24.00;48.00;;;;;;5003038;28;20112;-46
2022/07/19 11:32:59;;;;;;;1.55;0.60;;;24.00;48.10;;;;;;5003345;28;20029;-46
2022/07/19 11:35:26;;;;;;;3.05;0.88;;;24.00;48.00;;;;;;5002367;28;20718;-46
2022/07/19 11:37:54;;;;;;;2.15;0.88;;;24.00;47.90;;;;;;5003584;28;20064;-46
2022/07/19 11:40:21;;;;;;;1.80;0.90;;;24.10;48.70;;;;;;5003392;28;20731;-47
2022/07/19 11:42:48;;;;;;;1.83;0.60;;;24.10;48.00;;;;;;5003789;28;20128;-46
2022/07/19 11:45:20;;;;;;;1.48;0.70;;;24.10;48.10;;;;;;5002819;28;20049;-46
2022/07/19 11:47:56;;;;;;;1.45;0.55;;;24.10;48.10;;;;;;5003129;28;20597;-47
2022/07/19 11:50:25;;;;;;;1.80;0.52;;;24.10;48.10;;;;;;5002901;28;20026;-47
2022/07/19 11:52:57;;;;;;;1.17;0.55;;;24.10;48.10;;;;;;5003066;28;20752;-46
2022/07/19 11:55:28;;;;;;;1.85;0.70;;;24.20;48.10;;;;;;5002357;28;20033;-46
2022/07/19 11:57:56;;;;;;;1.10;0.52;;;24.20;48.20;;;;;;5012121;28;20036;-47
2022/07/19 12:00:22;;;;;;;1.63;0.55;;;24.20;48.10;;;;;;5007009;28;20052;-47
2022/07/19 12:03:04;;;;;;;1.10;0.50;;;24.20;48.20;;;;;;5002798;28;20383;-47
2022/07/19 12:05:36;;;;;;;0.90;0.43;;;24.20;48.20;;;;;;5002385;28;20044;-47
2022/07/19 12:08:04;;;;;;;1.45;0.60;;;24.20;48.20;;;;;;5002038;28;20062;-46
2022/07/19 12:10:36;;;;;;;1.80;0.80;;;24.20;48.10;;;;;;5002693;28;20053;-46
2022/07/19 12:13:03;;;;;;;1.05;0.40;;;24.20;48.10;;;;;;5002844;28;20506;-46
2022/07/19 12:15:43;;;;;;;1.65;0.60;;;24.30;48.20;;;;;;5002210;28;20125;-46
2022/07/19 12:18:12;;;;;;;1.35;0.63;;;24.30;48.10;;;;;;5002700;28;20030;-46
2022/07/19 12:20:38;;;;;;;1.65;0.60;;;24.30;48.10;;;;;;5003458;28;20029;-46
2022/07/19 12:23:19;;;;;;;1.08;0.55;;;24.30;48.10;;;;;;5002631;28;20036;-46
2022/07/19 12:25:45;;;;;;;1.20;0.50;;;24.40;48.10;;;;;;5002721;28;20533;-46
2022/07/19 12:28:11;;;;;;;1.80;0.57;;;24.40;48.00;;;;;;5002748;28;20077;-46
2022/07/19 12:30:36;;;;;;;1.65;0.60;;;24.40;48.00;;;;;;5002460;28;20026;-47
2022/07/19 12:33:25;;;;;;;1.55;0.45;;;24.40;47.90;;;;;;4998713;28;20033;-47
2022/07/19 12:35:50;;;;;;;4.10;0.70;;;24.50;47.90;;;;;;4998765;28;20113;-46
2022/07/19 12:38:16;;;;;;;5.05;1.08;;;24.50;48.10;;;;;;4996426;28;20545;-46
2022/07/19 12:40:43;;;;;;;3.08;1.05;;;24.50;48.40;;;;;;5001174;28;20052;-46
2022/07/19 12:43:12;;;;;;;3.72;1.10;;;24.50;48.50;;;;;;4999175;28;20638;-47
2022/07/19 12:45:46;;;;;;;7.32;1.05;;;24.50;48.40;;;;;;4996764;28;20096;-46
2022/07/19 12:48:14;;;;;;;5.18;1.05;;;24.60;48.40;;;;;;5003179;28;20037;-46